Time;durP1;ratioP1;P1;durP2;ratioP2;P2;SDS_P1;SDS_P2;PMS_P1;PMS_P2;Temp;Humidity;BMP_temperature;BMP_pressure;BME280_temperature;BME280_humidity;BME280_pressure;Samples;Min_cycle;Max_cycle;Signal;HPM_P1;HPM_P2
2020/12/14 00:01:19;;;;;;;1.70;0.20;;;6.20;99.90;;;;;;5041364;28;20194;-61
2020/12/14 00:03:45;;;;;;;1.70;0.20;;;6.20;99.90;;;;;;5038140;28;20440;-61
2020/12/14 00:06:10;;;;;;;1.70;0.20;;;6.20;99.90;;;;;;5026572;28;20198;-60
2020/12/14 00:08:36;;;;;;;1.70;0.20;;;6.10;99.90;;;;;;5033674;28;20634;-62
2020/12/14 00:11:02;;;;;;;1.70;0.20;;;6.20;99.90;;;;;;5019562;28;20201;-61
2020/12/14 00:13:27;;;;;;;1.70;0.20;;;6.10;99.90;;;;;;5030828;28;20276;-61
2020/12/14 00:15:53;;;;;;;1.70;0.20;;;6.20;99.90;;;;;;5030440;28;20284;-61
2020/12/14 00:18:18;;;;;;;1.70;0.20;;;6.20;99.90;;;;;;5044008;28;20760;-61
2020/12/14 00:20:44;;;;;;;1.70;0.20;;;6.30;99.90;;;;;;5030937;28;20186;-62
2020/12/14 00:23:09;;;;;;;1.70;0.20;;;6.30;99.90;;;;;;5029799;28;20186;-61
2020/12/14 00:25:35;;;;;;;1.70;0.20;;;6.30;99.90;;;;;;5031368;28;20202;-62
2020/12/14 00:28:00;;;;;;;1.70;0.20;;;6.30;99.90;;;;;;5028778;28;20241;-61
2020/12/14 00:30:26;;;;;;;1.70;0.20;;;6.30;99.90;;;;;;5030455;28;20194;-63
2020/12/14 00:32:51;;;;;;;1.70;0.20;;;6.30;99.90;;;;;;5028721;28;20266;-60
2020/12/14 00:35:17;;;;;;;1.70;0.20;;;6.20;99.90;;;;;;5029607;28;20212;-60
2020/12/14 00:37:42;;;;;;;1.70;0.20;;;6.20;99.90;;;;;;5030263;28;20205;-61
2020/12/14 00:40:08;;;;;;;1.70;0.20;;;6.20;99.90;;;;;;5029046;28;20200;-61
2020/12/14 00:42:33;;;;;;;1.70;0.20;;;6.20;99.90;;;;;;5031565;28;20181;-60
2020/12/14 00:44:59;;;;;;;1.70;0.20;;;6.10;99.90;;;;;;5022728;28;20206;-62
2020/12/14 00:47:24;;;;;;;1.70;0.20;;;6.20;99.90;;;;;;5028028;28;20693;-61
2020/12/14 00:49:50;;;;;;;1.70;0.20;;;6.20;99.90;;;;;;5031793;28;20182;-65
2020/12/14 00:52:15;;;;;;;1.70;0.20;;;6.20;99.90;;;;;;5034477;28;20276;-61
2020/12/14 00:54:41;;;;;;;1.70;0.20;;;6.30;99.90;;;;;;5038992;28;20265;-61
2020/12/14 00:57:07;;;;;;;1.70;0.20;;;6.40;99.90;;;;;;5044050;28;20210;-63
2020/12/14 00:59:32;;;;;;;1.70;0.20;;;6.40;99.90;;;;;;5038587;28;20194;-61
2020/12/14 01:01:58;;;;;;;1.70;0.20;;;6.40;99.90;;;;;;5034264;28;20453;-60
2020/12/14 01:04:23;;;;;;;1.70;0.20;;;6.30;99.90;;;;;;5036730;28;20185;-64
2020/12/14 01:06:53;;;;;;;1.70;0.20;;;6.40;99.90;;;;;;5044657;28;20190;-63
2020/12/14 01:09:19;;;;;;;1.70;0.20;;;6.40;99.90;;;;;;5045223;28;20281;-62
2020/12/14 01:11:44;;;;;;;1.70;0.20;;;6.40;99.90;;;;;;5040826;28;20428;-62
2020/12/14 01:14:10;;;;;;;1.70;0.20;;;6.50;99.90;;;;;;5050336;28;20474;-62
2020/12/14 01:16:54;;;;;;;1.70;0.20;;;6.50;99.90;;;;;;5050077;28;20213;-62
2020/12/14 01:19:20;;;;;;;1.70;0.20;;;6.60;99.90;;;;;;5056191;28;20205;-63
2020/12/14 01:21:45;;;;;;;1.70;0.20;;;6.60;99.90;;;;;;5056150;28;20470;-65
2020/12/14 01:24:11;;;;;;;1.70;0.20;;;6.60;99.90;;;;;;5046906;28;20193;-61
2020/12/14 01:26:36;;;;;;;1.70;0.20;;;6.50;99.90;;;;;;5056034;28;20257;-64
2020/12/14 01:29:02;;;;;;;1.70;0.20;;;6.60;99.90;;;;;;5050929;28;20271;-63
2020/12/14 01:31:27;;;;;;;1.70;0.20;;;6.60;99.90;;;;;;5045119;28;20205;-63
2020/12/14 01:33:53;;;;;;;1.70;0.20;;;6.60;99.90;;;;;;5055584;28;20182;-62
2020/12/14 01:36:18;;;;;;;1.70;0.20;;;6.60;99.90;;;;;;5053909;28;20255;-62
2020/12/14 01:38:44;;;;;;;1.70;0.20;;;6.60;99.90;;;;;;5055100;28;20209;-64
2020/12/14 01:41:09;;;;;;;1.70;0.20;;;6.60;99.90;;;;;;5044550;28;20258;-63
2020/12/14 01:43:35;;;;;;;1.70;0.20;;;6.60;99.90;;;;;;5030990;28;20238;-61
2020/12/14 01:46:00;;;;;;;1.70;0.20;;;6.60;99.90;;;;;;5031333;28;20197;-61
2020/12/14 01:48:26;;;;;;;1.70;0.20;;;6.60;99.90;;;;;;5031449;28;20210;-61
2020/12/14 01:50:52;;;;;;;1.70;0.20;;;6.50;99.90;;;;;;5034591;28;20189;-61
2020/12/14 01:53:20;;;;;;;1.70;0.20;;;6.50;99.90;;;;;;5035650;28;20198;-61
2020/12/14 01:55:49;;;;;;;1.70;0.20;;;6.50;99.90;;;;;;5024131;28;20473;-61
2020/12/14 01:58:15;;;;;;;1.70;0.20;;;6.50;99.90;;;;;;5044124;28;20709;-62
2020/12/14 02:00:41;;;;;;;1.70;0.20;;;6.60;99.90;;;;;;5054509;28;20523;-62
2020/12/14 02:03:06;;;;;;;1.70;0.20;;;6.70;99.90;;;;;;5055017;28;20182;-64
2020/12/14 02:05:32;;;;;;;1.70;0.20;;;6.60;99.90;;;;;;5048466;28;20183;-63
2020/12/14 02:07:57;;;;;;;1.70;0.20;;;6.60;99.90;;;;;;5055409;28;20193;-63
2020/12/14 02:10:24;;;;;;;1.70;0.20;;;6.60;99.90;;;;;;5052684;28;20445;-62
2020/12/14 02:12:50;;;;;;;1.70;0.20;;;6.60;99.90;;;;;;5054075;28;20216;-63
2020/12/14 02:15:15;;;;;;;1.70;0.20;;;6.60;99.90;;;;;;5052668;28;20456;-62
2020/12/14 02:17:41;;;;;;;1.70;0.20;;;6.60;99.90;;;;;;5049660;28;20528;-63
2020/12/14 02:20:06;;;;;;;1.70;0.20;;;6.60;99.90;;;;;;5040477;28;20186;-66
2020/12/14 02:22:32;;;;;;;1.70;0.20;;;6.60;99.90;;;;;;5049766;28;20240;-61
2020/12/14 02:25:03;;;;;;;1.70;0.20;;;6.70;99.90;;;;;;5034424;28;20200;-60
2020/12/14 02:27:30;;;;;;;1.70;0.20;;;6.70;99.90;;;;;;5023383;28;20827;-62
2020/12/14 02:29:56;;;;;;;1.70;0.20;;;6.70;99.90;;;;;;5027966;28;20434;-61
2020/12/14 02:32:25;;;;;;;1.70;0.20;;;6.80;99.90;;;;;;5027487;28;20440;-61
2020/12/14 02:34:50;;;;;;;1.70;0.20;;;6.80;99.90;;;;;;5031980;28;20529;-62
2020/12/14 02:37:22;;;;;;;1.70;0.20;;;6.90;99.90;;;;;;5030027;28;20460;-61
2020/12/14 02:39:48;;;;;;;1.70;0.20;;;6.80;99.90;;;;;;5031535;28;20585;-61
2020/12/14 02:42:18;;;;;;;1.70;0.20;;;6.90;99.90;;;;;;5032562;28;20441;-61
2020/12/14 02:44:45;;;;;;;1.70;0.20;;;6.90;99.90;;;;;;5029543;28;20182;-61
2020/12/14 02:47:10;;;;;;;1.70;0.20;;;6.90;99.90;;;;;;5026772;28;20456;-61
2020/12/14 02:49:37;;;;;;;1.70;0.20;;;6.90;99.90;;;;;;5034051;28;20426;-60
2020/12/14 02:52:04;;;;;;;1.70;0.20;;;6.90;99.90;;;;;;5033475;28;20267;-62
2020/12/14 02:54:30;;;;;;;1.70;0.20;;;6.80;99.90;;;;;;5034444;28;20495;-61
2020/12/14 02:56:55;;;;;;;1.70;0.20;;;6.80;99.90;;;;;;5035357;28;22536;-61
2020/12/14 02:59:22;;;;;;;1.70;0.20;;;6.80;99.90;;;;;;5028331;28;20221;-62
2020/12/14 03:01:48;;;;;;;1.70;0.20;;;6.80;99.90;;;;;;5032262;28;20676;-63
2020/12/14 03:04:15;;;;;;;1.70;0.20;;;6.80;99.90;;;;;;5033417;28;20559;-62
2020/12/14 03:06:43;;;;;;;1.70;0.20;;;6.80;99.90;;;;;;5031873;28;20428;-61
2020/12/14 03:09:09;;;;;;;1.70;0.20;;;6.80;99.90;;;;;;5022875;28;20456;-61
2020/12/14 03:11:34;;;;;;;1.70;0.20;;;6.80;99.90;;;;;;5025124;28;20449;-61
2020/12/14 03:14:00;;;;;;;1.70;0.20;;;6.80;99.90;;;;;;5029277;28;20190;-62
2020/12/14 03:16:25;;;;;;;1.70;0.20;;;6.80;99.90;;;;;;5033313;28;20209;-61
2020/12/14 03:18:51;;;;;;;1.70;0.20;;;6.70;99.90;;;;;;5030421;28;20307;-62
2020/12/14 03:21:16;;;;;;;1.70;0.20;;;6.70;99.90;;;;;;5030566;28;20186;-63
2020/12/14 03:23:42;;;;;;;1.70;0.20;;;6.70;99.90;;;;;;5034463;28;20324;-61
2020/12/14 03:26:07;;;;;;;1.70;0.20;;;6.60;99.90;;;;;;5028162;28;20668;-61
2020/12/14 03:28:33;;;;;;;1.70;0.20;;;6.60;99.90;;;;;;5032775;28;20225;-61
2020/12/14 03:30:58;;;;;;;1.70;0.20;;;6.60;99.90;;;;;;5024077;28;20252;-60
2020/12/14 03:33:24;;;;;;;1.70;0.20;;;6.60;99.90;;;;;;5031941;28;20205;-62
2020/12/14 03:35:50;;;;;;;1.70;0.20;;;6.60;99.90;;;;;;5022594;28;20212;-61
2020/12/14 03:38:16;;;;;;;1.70;0.20;;;6.50;99.90;;;;;;5033033;28;20558;-62
2020/12/14 03:40:42;;;;;;;1.70;0.20;;;6.40;99.90;;;;;;5033098;28;20190;-60
2020/12/14 03:43:08;;;;;;;1.70;0.20;;;6.40;99.90;;;;;;5032043;28;20967;-61
2020/12/14 03:45:34;;;;;;;1.70;0.20;;;6.30;99.90;;;;;;5032795;28;20439;-61
2020/12/14 03:47:59;;;;;;;1.70;0.20;;;6.30;99.90;;;;;;5027444;28;20523;-60
2020/12/14 03:50:25;;;;;;;1.70;0.20;;;6.30;99.90;;;;;;5021213;28;20189;-61
2020/12/14 03:52:50;;;;;;;1.90;0.83;;;6.30;99.90;;;;;;5032277;28;20692;-61
2020/12/14 03:55:16;;;;;;;1.70;0.20;;;6.30;99.90;;;;;;5030119;28;20507;-62
2020/12/14 03:57:41;;;;;;;1.73;0.20;;;6.20;99.90;;;;;;5022455;28;20217;-60
2020/12/14 04:00:07;;;;;;;1.70;0.20;;;6.30;99.90;;;;;;5030380;28;20189;-62
2020/12/14 04:02:32;;;;;;;1.70;0.20;;;6.30;99.90;;;;;;5024064;28;20248;-60
2020/12/14 04:04:58;;;;;;;1.70;0.20;;;6.30;99.90;;;;;;5032241;28;20250;-61
2020/12/14 04:07:23;;;;;;;1.70;0.20;;;6.30;99.90;;;;;;5030663;28;20201;-61
2020/12/14 04:09:49;;;;;;;1.70;0.20;;;6.30;99.90;;;;;;5027342;28;20194;-62
2020/12/14 04:12:14;;;;;;;1.70;0.20;;;6.30;99.90;;;;;;5020267;28;20182;-60
2020/12/14 04:14:40;;;;;;;1.70;0.20;;;6.30;99.90;;;;;;5031599;28;20209;-60
2020/12/14 04:17:05;;;;;;;1.70;0.20;;;6.40;99.90;;;;;;5030884;28;20218;-61
2020/12/14 04:19:31;;;;;;;1.70;0.20;;;6.40;99.90;;;;;;5022959;28;20229;-63
2020/12/14 04:21:59;;;;;;;1.70;0.20;;;6.40;99.90;;;;;;5024719;28;20189;-60
2020/12/14 04:24:25;;;;;;;1.70;0.20;;;6.40;99.90;;;;;;5029513;28;20236;-62
2020/12/14 04:26:54;;;;;;;1.70;0.20;;;6.40;99.90;;;;;;5029790;28;20436;-60
2020/12/14 04:29:21;;;;;;;1.70;0.20;;;6.40;99.90;;;;;;5030969;28;20196;-60
2020/12/14 04:31:46;;;;;;;1.70;0.20;;;6.40;99.90;;;;;;5024662;28;20436;-60
2020/12/14 04:34:12;;;;;;;1.70;0.20;;;6.40;99.90;;;;;;5030283;28;20433;-60
2020/12/14 04:36:37;;;;;;;1.70;0.20;;;6.40;99.90;;;;;;5029649;28;20652;-61
2020/12/14 04:39:03;;;;;;;1.70;0.20;;;6.40;99.90;;;;;;5030900;28;20661;-60
2020/12/14 04:41:29;;;;;;;1.70;0.20;;;6.40;99.90;;;;;;5031369;28;20197;-62
2020/12/14 04:43:58;;;;;;;1.70;0.20;;;6.30;99.90;;;;;;5031394;28;20969;-60
2020/12/14 04:46:25;;;;;;;2.23;1.03;;;6.30;99.90;;;;;;5026793;28;20192;-61
2020/12/14 04:48:51;;;;;;;1.70;0.20;;;6.30;99.90;;;;;;5030158;28;20482;-61
2020/12/14 04:51:17;;;;;;;1.70;0.20;;;6.30;99.90;;;;;;5028791;28;20495;-61
2020/12/14 04:53:45;;;;;;;1.70;0.20;;;6.30;99.90;;;;;;5022616;28;20424;-61
2020/12/14 04:56:16;;;;;;;1.70;0.20;;;6.30;99.90;;;;;;5030876;28;20479;-61
2020/12/14 04:58:43;;;;;;;1.70;0.20;;;6.30;99.90;;;;;;5032279;28;20840;-62
2020/12/14 05:01:10;;;;;;;1.70;0.20;;;6.30;99.90;;;;;;5024034;28;20824;-61
2020/12/14 05:03:35;;;;;;;1.70;0.20;;;6.20;99.90;;;;;;5022522;28;20441;-61
2020/12/14 05:06:01;;;;;;;1.70;0.20;;;6.20;99.90;;;;;;5023692;28;20471;-62
2020/12/14 05:08:29;;;;;;;1.70;0.20;;;6.10;99.90;;;;;;5022057;28;20457;-60
2020/12/14 05:10:55;;;;;;;1.70;0.23;;;6.00;99.90;;;;;;5025228;28;20491;-62
2020/12/14 05:13:28;;;;;;;1.70;0.20;;;6.00;99.90;;;;;;5027814;28;20766;-61
2020/12/14 05:15:54;;;;;;;1.70;0.20;;;5.90;99.90;;;;;;5031005;28;20468;-60
2020/12/14 05:18:23;;;;;;;1.70;0.20;;;6.00;99.90;;;;;;5029355;28;20472;-61
2020/12/14 05:21:01;;;;;;;1.70;0.20;;;6.10;99.90;;;;;;5031163;28;20460;-60
2020/12/14 05:23:28;;;;;;;1.70;0.20;;;6.20;99.90;;;;;;5031474;28;20435;-63
2020/12/14 05:26:07;;;;;;;1.70;0.20;;;6.20;99.90;;;;;;5029215;28;20845;-62
2020/12/14 05:28:34;;;;;;;1.70;0.20;;;6.30;99.90;;;;;;5028794;28;20976;-61
2020/12/14 05:30:59;;;;;;;1.70;0.20;;;6.30;99.90;;;;;;5030613;28;20451;-61
2020/12/14 05:33:28;;;;;;;1.70;0.20;;;6.20;99.90;;;;;;5028640;28;20437;-62
2020/12/14 05:35:53;;;;;;;1.70;0.20;;;6.20;99.90;;;;;;5030729;28;20660;-60
2020/12/14 05:38:23;;;;;;;1.70;0.20;;;6.20;99.90;;;;;;5031777;28;20459;-61
2020/12/14 05:40:51;;;;;;;1.70;0.20;;;6.20;99.90;;;;;;5037702;28;20170;-61
2020/12/14 05:43:22;;;;;;;1.70;0.20;;;6.20;99.90;;;;;;5040748;28;20436;-61
2020/12/14 05:45:49;;;;;;;1.70;0.20;;;6.20;99.90;;;;;;5033950;28;20440;-61
2020/12/14 05:48:23;;;;;;;1.70;0.20;;;6.20;99.90;;;;;;5032627;28;20472;-61
2020/12/14 05:50:51;;;;;;;1.70;0.20;;;6.30;99.90;;;;;;5038419;28;20548;-63
2020/12/14 05:53:20;;;;;;;1.70;0.20;;;6.30;99.90;;;;;;5044138;28;20466;-63
2020/12/14 05:55:47;;;;;;;1.70;0.20;;;6.20;99.90;;;;;;5042603;28;20475;-63
2020/12/14 05:58:16;;;;;;;1.70;0.20;;;6.20;99.90;;;;;;5041407;28;20974;-61
2020/12/14 06:00:46;;;;;;;2.20;1.70;;;6.20;99.90;;;;;;5033546;28;20434;-60
2020/12/14 06:03:12;;;;;;;1.70;0.20;;;6.30;99.90;;;;;;5031611;28;20436;-61
2020/12/14 06:05:38;;;;;;;1.70;0.20;;;6.30;99.90;;;;;;5030687;28;20436;-60
2020/12/14 06:08:31;;;;;;;1.70;0.20;;;6.30;99.90;;;;;;5028522;28;20464;-62
2020/12/14 06:10:58;;;;;;;1.70;0.20;;;6.40;99.90;;;;;;5031893;28;20955;-60
2020/12/14 06:13:33;;;;;;;1.70;0.20;;;6.50;99.90;;;;;;5035563;28;20432;-64
2020/12/14 06:16:00;;;;;;;1.70;0.20;;;6.50;99.90;;;;;;5025924;28;20546;-61
2020/12/14 06:18:32;;;;;;;1.70;0.20;;;6.60;99.90;;;;;;5034550;28;20831;-61
2020/12/14 06:20:58;;;;;;;1.70;0.20;;;6.60;99.90;;;;;;5029843;28;20493;-60
2020/12/14 06:23:24;;;;;;;1.70;0.20;;;6.60;99.90;;;;;;5037940;28;20519;-61
2020/12/14 06:25:50;;;;;;;1.70;0.20;;;6.60;99.90;;;;;;5031904;28;20531;-63
2020/12/14 06:28:33;;;;;;;1.70;0.20;;;6.50;99.90;;;;;;5033980;28;20557;-60
2020/12/14 06:30:59;;;;;;;5.33;1.60;;;6.60;99.90;;;;;;5029531;28;20556;-61
2020/12/14 06:33:36;;;;;;;1.70;0.20;;;6.60;99.90;;;;;;5031021;28;20934;-62
2020/12/14 06:36:19;;;;;;;1.70;0.20;;;6.60;99.90;;;;;;5035475;28;20967;-60
2020/12/14 06:38:46;;;;;;;1.70;0.20;;;6.60;99.90;;;;;;5026467;28;20823;-61
2020/12/14 06:41:20;;;;;;;1.70;0.20;;;6.60;99.90;;;;;;5033433;28;20528;-61
2020/12/14 06:43:49;;;;;;;1.70;0.20;;;6.60;99.90;;;;;;5022129;28;20436;-62
2020/12/14 06:46:26;;;;;;;1.70;0.20;;;6.60;99.90;;;;;;5032813;28;20443;-61
2020/12/14 06:48:53;;;;;;;1.70;0.20;;;6.70;99.90;;;;;;5031947;28;20448;-61
2020/12/14 06:51:18;;;;;;;1.70;0.20;;;6.70;99.90;;;;;;5022943;28;20977;-61
2020/12/14 06:53:54;;;;;;;1.70;0.20;;;6.70;99.90;;;;;;5036123;28;20444;-61
2020/12/14 06:56:32;;;;;;;1.73;0.20;;;6.70;99.90;;;;;;5028651;28;20636;-60
2020/12/14 06:58:57;;;;;;;2.20;1.43;;;6.80;99.90;;;;;;5026320;28;20974;-59
2020/12/14 07:01:38;;;;;;;1.70;0.20;;;6.70;99.90;;;;;;5027390;28;20444;-60
2020/12/14 07:04:12;;;;;;;1.70;0.20;;;6.70;99.90;;;;;;5032514;28;20178;-61
2020/12/14 07:06:38;;;;;;;1.70;0.20;;;6.80;99.90;;;;;;5034307;28;20435;-62
2020/12/14 07:09:28;;;;;;;1.70;0.20;;;6.80;99.90;;;;;;5027575;28;20448;-64
2020/12/14 07:12:08;;;;;;;1.70;0.20;;;6.80;99.90;;;;;;5027690;28;20175;-61
2020/12/14 07:14:44;;;;;;;1.70;0.20;;;6.80;99.90;;;;;;5026905;28;20797;-61
2020/12/14 07:17:27;;;;;;;1.70;0.20;;;6.70;99.90;;;;;;5033064;28;20904;-61
2020/12/14 07:19:55;;;;;;;1.70;0.20;;;6.80;99.90;;;;;;5025735;28;20437;-60
2020/12/14 07:22:33;;;;;;;1.70;0.20;;;6.70;99.90;;;;;;5034152;28;20450;-61
2020/12/14 07:24:58;;;;;;;1.70;0.20;;;6.70;99.90;;;;;;5033501;28;20463;-60
2020/12/14 07:27:24;;;;;;;20.40;18.60;;;6.80;99.90;;;;;;5029528;28;20458;-61
2020/12/14 07:29:50;;;;;;;1.70;0.20;;;6.80;99.90;;;;;;5033208;28;20282;-62
2020/12/14 07:32:16;;;;;;;1.70;0.20;;;6.80;99.90;;;;;;5021624;28;20873;-61
2020/12/14 07:34:54;;;;;;;1.70;0.20;;;6.80;99.90;;;;;;5033692;28;20197;-61
2020/12/14 07:37:23;;;;;;;1.70;0.20;;;6.80;99.90;;;;;;5032444;28;20244;-61
2020/12/14 07:39:49;;;;;;;1.70;0.20;;;6.80;99.90;;;;;;5025085;28;20497;-61
2020/12/14 07:42:29;;;;;;;1.70;0.20;;;6.80;99.90;;;;;;5033466;28;20453;-61
2020/12/14 07:45:10;;;;;;;1.70;0.20;;;6.90;99.90;;;;;;5034273;28;20886;-63
2020/12/14 07:47:36;;;;;;;1.70;0.20;;;6.90;99.90;;;;;;5033754;28;20459;-63
2020/12/14 07:50:10;;;;;;;1.70;0.20;;;7.00;99.90;;;;;;5033227;28;20440;-62
2020/12/14 07:52:36;;;;;;;1.70;0.20;;;7.00;99.90;;;;;;5032559;28;20444;-62
2020/12/14 07:55:04;;;;;;;1.70;0.20;;;7.00;99.90;;;;;;5026255;28;20455;-61
2020/12/14 07:57:32;;;;;;;1.70;0.20;;;7.00;99.90;;;;;;5025497;28;20206;-62
2020/12/14 07:59:59;;;;;;;1.70;0.20;;;7.00;99.90;;;;;;5027149;28;20444;-61
2020/12/14 08:02:29;;;;;;;1.70;0.20;;;7.10;99.90;;;;;;5032877;28;20483;-63
2020/12/14 08:05:03;;;;;;;1.70;0.20;;;7.10;99.90;;;;;;5024691;28;20787;-62
2020/12/14 08:07:52;;;;;;;1.70;0.20;;;7.20;99.90;;;;;;5031906;28;20468;-63
2020/12/14 08:10:38;;;;;;;1.70;0.20;;;7.20;99.90;;;;;;5030764;28;20444;-62
2020/12/14 08:13:09;;;;;;;1.70;0.20;;;7.30;99.90;;;;;;5030596;28;20440;-62
2020/12/14 08:15:36;;;;;;;1.70;0.20;;;7.20;99.90;;;;;;5031499;28;20989;-61
2020/12/14 08:18:05;;;;;;;1.70;0.20;;;7.20;99.90;;;;;;5020124;28;20475;-61
2020/12/14 08:20:36;;;;;;;2.07;1.23;;;7.20;99.90;;;;;;5034215;28;20443;-61
2020/12/14 08:23:03;;;;;;;1.70;0.20;;;7.20;99.90;;;;;;5033444;28;20428;-61
2020/12/14 08:25:31;;;;;;;1.70;0.20;;;7.20;99.90;;;;;;5033008;28;20451;-62
2020/12/14 08:28:00;;;;;;;1.70;0.20;;;7.30;99.90;;;;;;5025255;28;20544;-65
2020/12/14 08:30:27;;;;;;;1.70;0.20;;;7.30;99.90;;;;;;5025518;28;20450;-61
2020/12/14 08:33:11;;;;;;;1.70;0.20;;;7.30;99.90;;;;;;5032630;28;20439;-61
2020/12/14 08:35:42;;;;;;;1.70;0.20;;;7.20;99.90;;;;;;5030359;28;20495;-62
2020/12/14 08:38:09;;;;;;;1.70;0.20;;;7.30;99.90;;;;;;5027538;28;20460;-62
2020/12/14 08:40:35;;;;;;;1.70;0.20;;;7.20;99.90;;;;;;5021868;28;20530;-63
2020/12/14 08:43:12;;;;;;;1.70;0.20;;;7.30;99.90;;;;;;5024805;28;20436;-62
2020/12/14 08:46:05;;;;;;;1.70;0.20;;;7.40;99.90;;;;;;5022293;28;20711;-62
2020/12/14 08:48:39;;;;;;;1.70;0.20;;;7.40;99.90;;;;;;5024776;28;20463;-61
2020/12/14 08:51:07;;;;;;;1.70;0.20;;;7.40;99.90;;;;;;5021102;28;20448;-62
2020/12/14 08:53:34;;;;;;;1.70;0.20;;;7.50;99.90;;;;;;5032592;28;20440;-62
2020/12/14 08:56:03;;;;;;;1.70;0.20;;;7.50;99.90;;;;;;5022489;28;21041;-61
2020/12/14 08:58:28;;;;;;;1.70;0.20;;;7.50;99.90;;;;;;5020326;28;20453;-61
2020/12/14 09:00:54;;;;;;;1.70;0.20;;;7.40;99.90;;;;;;5030015;28;20448;-63
2020/12/14 09:03:19;;;;;;;1.70;0.20;;;7.40;99.90;;;;;;5040518;28;20182;-62
2020/12/14 09:05:45;;;;;;;1.70;0.20;;;7.50;99.90;;;;;;5021690;28;20225;-61
2020/12/14 09:08:15;;;;;;;1.70;0.20;;;7.50;99.90;;;;;;5022366;28;20214;-62
2020/12/14 09:10:41;;;;;;;1.70;0.20;;;7.50;99.90;;;;;;5029715;28;20686;-61
2020/12/14 09:13:07;;;;;;;1.70;0.20;;;7.60;99.90;;;;;;5027357;28;20433;-61
2020/12/14 09:15:33;;;;;;;1.70;0.20;;;7.60;99.90;;;;;;5025818;28;20556;-61
2020/12/14 09:18:08;;;;;;;1.70;0.20;;;7.70;99.90;;;;;;5028773;28;20245;-62
2020/12/14 09:20:34;;;;;;;1.70;0.20;;;7.70;99.90;;;;;;5031019;28;20443;-61
2020/12/14 09:23:00;;;;;;;1.70;0.20;;;7.80;99.90;;;;;;5028083;28;20448;-61
2020/12/14 09:25:27;;;;;;;1.70;0.20;;;7.80;99.90;;;;;;5027216;28;20456;-62
2020/12/14 09:27:52;;;;;;;1.70;0.20;;;7.80;99.90;;;;;;5021908;28;20461;-61
2020/12/14 09:30:18;;;;;;;1.70;0.20;;;7.80;99.90;;;;;;5023370;28;20440;-61
2020/12/14 09:32:43;;;;;;;1.70;0.20;;;7.80;99.90;;;;;;5022905;28;20240;-61
2020/12/14 09:35:09;;;;;;;4.87;3.80;;;7.80;99.90;;;;;;5030653;28;20672;-61
2020/12/14 09:37:34;;;;;;;1.70;0.20;;;7.80;99.90;;;;;;5023127;28;20588;-62
2020/12/14 09:40:02;;;;;;;1.70;0.20;;;7.80;99.90;;;;;;5021039;28;20197;-61
2020/12/14 09:42:28;;;;;;;1.70;0.20;;;7.80;99.90;;;;;;5026146;28;20173;-61
2020/12/14 09:44:54;;;;;;;1.70;0.20;;;7.90;99.90;;;;;;5026110;28;20518;-61
2020/12/14 09:47:19;;;;;;;1.70;0.20;;;8.00;99.90;;;;;;5022151;28;20449;-61
2020/12/14 09:49:45;;;;;;;1.70;0.20;;;8.00;99.90;;;;;;5045347;28;20853;-63
2020/12/14 09:52:10;;;;;;;2.47;1.90;;;8.10;99.90;;;;;;5033014;28;20534;-62
2020/12/14 09:54:36;;;;;;;1.70;0.20;;;8.00;99.90;;;;;;5027285;28;20683;-61
2020/12/14 09:57:01;;;;;;;1.70;0.40;;;8.00;99.90;;;;;;5031071;28;20285;-62
2020/12/14 09:59:27;;;;;;;1.70;0.20;;;8.00;99.90;;;;;;5026474;28;20181;-64
2020/12/14 10:01:52;;;;;;;1.70;0.20;;;8.00;99.90;;;;;;5035840;28;20189;-62
2020/12/14 10:04:18;;;;;;;1.70;0.20;;;8.00;99.90;;;;;;5031633;28;20673;-62
2020/12/14 10:06:47;;;;;;;2.63;0.80;;;8.00;99.90;;;;;;5028943;28;21807;-61
2020/12/14 10:09:13;;;;;;;1.80;0.30;;;7.90;99.90;;;;;;5028488;28;20687;-61
2020/12/14 10:11:39;;;;;;;1.70;0.20;;;7.80;99.90;;;;;;5032742;28;20456;-62
2020/12/14 10:14:05;;;;;;;1.77;0.37;;;7.90;99.90;;;;;;5031971;28;20332;-63
2020/12/14 10:16:30;;;;;;;1.70;0.20;;;7.90;99.90;;;;;;5032851;28;20922;-62
2020/12/14 10:18:56;;;;;;;2.30;1.03;;;7.80;99.90;;;;;;5033717;28;20271;-61
2020/12/14 10:21:22;;;;;;;1.80;0.50;;;7.80;99.90;;;;;;5022705;28;20193;-61
2020/12/14 10:23:47;;;;;;;1.70;0.20;;;7.70;99.90;;;;;;5024448;28;20186;-61
2020/12/14 10:26:14;;;;;;;2.10;0.90;;;7.60;99.90;;;;;;5025553;28;20185;-61
2020/12/14 10:28:40;;;;;;;1.70;0.20;;;7.60;99.90;;;;;;5033432;28;20765;-63
2020/12/14 10:31:07;;;;;;;1.70;0.20;;;7.60;99.90;;;;;;5032459;28;20916;-63
2020/12/14 10:33:33;;;;;;;1.70;0.20;;;7.60;99.90;;;;;;5017381;28;20445;-62
2020/12/14 10:36:06;;;;;;;1.77;0.30;;;7.60;99.90;;;;;;5025669;28;20484;-63
2020/12/14 10:38:31;;;;;;;1.70;0.20;;;7.60;99.90;;;;;;5033749;28;20194;-62
2020/12/14 10:40:57;;;;;;;1.70;0.30;;;7.70;99.90;;;;;;5035134;28;20446;-62
2020/12/14 10:43:22;;;;;;;1.90;0.50;;;7.70;99.90;;;;;;5043622;28;20189;-62
2020/12/14 10:45:48;;;;;;;1.70;0.20;;;7.70;99.90;;;;;;5040512;28;20182;-64
2020/12/14 10:48:13;;;;;;;1.77;0.30;;;7.60;99.90;;;;;;5033763;28;20218;-62
2020/12/14 10:50:39;;;;;;;1.80;0.40;;;7.60;99.90;;;;;;5033990;28;20228;-62
2020/12/14 10:53:05;;;;;;;8.70;1.80;;;7.60;99.90;;;;;;5040525;28;20190;-61
2020/12/14 10:55:31;;;;;;;4.23;2.50;;;7.60;99.90;;;;;;5031613;28;21094;-62
2020/12/14 10:57:56;;;;;;;8.03;1.60;;;7.50;99.90;;;;;;5022917;28;20560;-61
2020/12/14 11:00:22;;;;;;;2.00;0.67;;;7.50;99.90;;;;;;5033404;28;20213;-61
2020/12/14 11:02:48;;;;;;;1.70;0.20;;;7.50;99.90;;;;;;5031107;28;20182;-62
2020/12/14 11:05:13;;;;;;;1.70;0.20;;;7.50;99.90;;;;;;5021747;28;20956;-61
2020/12/14 11:07:40;;;;;;;1.70;0.20;;;7.50;99.90;;;;;;5024214;28;20753;-62
2020/12/14 11:10:07;;;;;;;1.70;0.20;;;7.50;99.90;;;;;;5025803;28;20216;-61
2020/12/14 11:12:33;;;;;;;1.90;0.70;;;7.60;99.90;;;;;;5022216;28;20440;-62
2020/12/14 11:14:59;;;;;;;1.70;0.20;;;7.60;99.90;;;;;;5031513;28;20499;-62
2020/12/14 11:17:24;;;;;;;1.70;0.20;;;7.60;99.90;;;;;;5032518;28;20480;-63
2020/12/14 11:19:50;;;;;;;1.70;0.20;;;7.70;99.90;;;;;;5034125;28;20212;-63
2020/12/14 11:22:16;;;;;;;2.80;0.97;;;7.70;99.90;;;;;;5034161;28;20194;-62
2020/12/14 11:24:41;;;;;;;1.70;0.20;;;7.80;99.90;;;;;;5028018;28;20181;-64
2020/12/14 11:27:07;;;;;;;1.70;0.20;;;7.90;99.90;;;;;;5043017;28;20217;-63
2020/12/14 11:29:32;;;;;;;1.73;0.20;;;8.00;99.90;;;;;;5042522;28;20277;-63
2020/12/14 11:31:58;;;;;;;1.70;0.20;;;8.00;99.90;;;;;;5046120;28;20186;-63
2020/12/14 11:34:24;;;;;;;1.70;0.20;;;8.10;99.90;;;;;;5025743;28;20193;-62
2020/12/14 11:36:49;;;;;;;1.70;0.20;;;8.20;99.90;;;;;;5032484;28;20209;-63
2020/12/14 11:39:15;;;;;;;1.70;0.20;;;8.30;99.90;;;;;;5023146;28;20185;-65
2020/12/14 11:41:45;;;;;;;1.70;0.20;;;8.30;99.90;;;;;;5033109;28;20192;-62
2020/12/14 11:44:11;;;;;;;1.70;0.20;;;8.30;99.90;;;;;;5033144;28;20220;-64
2020/12/14 11:46:40;;;;;;;1.70;0.20;;;8.40;99.90;;;;;;5031268;28;21617;-64
2020/12/14 11:49:06;;;;;;;1.70;0.20;;;8.40;99.90;;;;;;5031917;28;20221;-62
2020/12/14 11:51:34;;;;;;;1.70;0.20;;;8.50;99.90;;;;;;5031405;28;20460;-63
2020/12/14 11:53:59;;;;;;;1.70;0.20;;;8.60;99.90;;;;;;5033059;28;20190;-64
2020/12/14 11:56:25;;;;;;;1.70;0.20;;;8.70;99.90;;;;;;5031629;28;20467;-62
2020/12/14 11:58:50;;;;;;;1.70;0.20;;;8.70;99.90;;;;;;5030464;28;20261;-61
2020/12/14 12:01:20;;;;;;;1.70;0.20;;;8.80;99.90;;;;;;5031014;28;20187;-61
2020/12/14 12:03:46;;;;;;;1.80;0.30;;;8.80;99.90;;;;;;5032459;28;20208;-61
2020/12/14 12:06:11;;;;;;;1.70;0.20;;;8.90;99.90;;;;;;5031229;28;20476;-62
2020/12/14 12:08:37;;;;;;;1.70;0.20;;;8.90;99.90;;;;;;5022207;28;20285;-66
2020/12/14 12:11:02;;;;;;;2.00;1.13;;;8.90;99.90;;;;;;5026802;28;20653;-63
2020/12/14 12:13:32;;;;;;;1.70;0.20;;;9.00;99.90;;;;;;5021846;28;20653;-64
2020/12/14 12:15:57;;;;;;;1.77;0.20;;;9.00;99.90;;;;;;5028707;28;20228;-63
2020/12/14 12:18:22;;;;;;;1.70;0.20;;;9.00;99.90;;;;;;5030427;28;20456;-62
2020/12/14 12:20:48;;;;;;;1.70;0.20;;;9.00;99.90;;;;;;5031392;28;20178;-63
2020/12/14 12:23:14;;;;;;;1.70;0.20;;;9.10;99.90;;;;;;5031821;28;20186;-63
2020/12/14 12:25:39;;;;;;;1.70;0.20;;;9.10;99.90;;;;;;5031088;28;20312;-63
2020/12/14 12:28:04;;;;;;;1.70;0.20;;;9.10;99.90;;;;;;5028957;28;20224;-62
2020/12/14 12:30:34;;;;;;;1.70;0.20;;;9.10;99.90;;;;;;5031706;28;20213;-63
2020/12/14 12:33:00;;;;;;;1.70;0.20;;;9.10;99.90;;;;;;5024713;28;20191;-62
2020/12/14 12:35:26;;;;;;;1.70;0.20;;;9.20;99.90;;;;;;5031798;28;20746;-63
2020/12/14 12:37:51;;;;;;;1.70;0.20;;;9.10;99.90;;;;;;5032926;28;20460;-63
2020/12/14 12:40:17;;;;;;;1.70;0.20;;;9.20;99.90;;;;;;5027588;28;20225;-63
2020/12/14 12:42:42;;;;;;;1.70;0.20;;;9.20;99.90;;;;;;5025689;28;20209;-62
2020/12/14 12:45:08;;;;;;;1.70;0.20;;;9.30;99.90;;;;;;5029265;28;20840;-62
2020/12/14 12:47:33;;;;;;;1.70;0.20;;;9.30;99.90;;;;;;5028748;28;20213;-61
2020/12/14 12:49:59;;;;;;;1.70;0.20;;;9.20;99.90;;;;;;5032295;28;20591;-63
2020/12/14 12:52:24;;;;;;;1.70;0.20;;;9.30;99.90;;;;;;5029853;28;20209;-62
2020/12/14 12:54:50;;;;;;;1.70;0.20;;;9.30;99.90;;;;;;5031032;28;20189;-63
2020/12/14 12:57:16;;;;;;;1.70;0.20;;;9.30;99.90;;;;;;5019870;28;20301;-62
2020/12/14 12:59:42;;;;;;;1.70;0.20;;;9.30;99.90;;;;;;5028278;28;20197;-62